Time;durP1;ratioP1;P1;durP2;ratioP2;P2;SDS_P1;SDS_P2;PMS_P1;PMS_P2;Temp;Humidity;BMP_temperature;BMP_pressure;BME280_temperature;BME280_humidity;BME280_pressure;Samples;Min_cycle;Max_cycle;Signal;HPM_P1;HPM_P2
2023/06/07 00:02:26;;;;;;;8.23;4.80;;;;;;;;;;5101445;28;20451;-63
2023/06/07 00:04:52;;;;;;;8.23;4.93;;;;;;;;;;5108352;28;20463;-64
2023/06/07 00:07:18;;;;;;;8.40;5.50;;;;;;;;;;5104977;28;20523;-64
2023/06/07 00:09:45;;;;;;;11.50;5.80;;;;;;;;;;5101541;28;20557;-66
2023/06/07 00:12:13;;;;;;;8.97;4.97;;;;;;;;;;5101545;28;20553;-67
2023/06/07 00:14:39;;;;;;;12.17;5.93;;;;;;;;;;5102449;28;20936;-63
2023/06/07 00:17:05;;;;;;;9.30;6.13;;;;;;;;;;5100882;28;20447;-64
2023/06/07 00:19:32;;;;;;;8.10;5.50;;;;;;;;;;5104092;28;20467;-66
2023/06/07 00:21:58;;;;;;;11.60;5.93;;;;;;;;;;5105423;28;20450;-66
2023/06/07 00:24:24;;;;;;;9.10;5.03;;;;;;;;;;5101054;28;20485;-66
2023/06/07 00:26:51;;;;;;;11.60;5.40;;;;;;;;;;5107024;28;20451;-65
2023/06/07 00:29:18;;;;;;;11.23;6.10;;;;;;;;;;5105563;28;21004;-66
2023/06/07 00:31:45;;;;;;;6.23;5.17;;;;;;;;;;5104898;28;20529;-65
2023/06/07 00:34:11;;;;;;;8.13;6.23;;;;;;;;;;5106647;28;20520;-66
2023/06/07 00:36:38;;;;;;;9.30;5.27;;;;;;;;;;5104525;28;20501;-66
2023/06/07 00:39:04;;;;;;;9.00;5.00;;;;;;;;;;5104690;28;20507;-66
2023/06/07 00:41:30;;;;;;;10.20;6.07;;;;;;;;;;5104911;28;20449;-66
2023/06/07 00:43:57;;;;;;;6.47;5.13;;;;;;;;;;5104440;28;20550;-65
2023/06/07 00:46:27;;;;;;;7.47;4.73;;;;;;;;;;5104822;28;20518;-65
2023/06/07 00:48:53;;;;;;;12.10;5.43;;;;;;;;;;5105423;28;20581;-68
2023/06/07 00:51:20;;;;;;;14.53;5.43;;;;;;;;;;5105906;28;20465;-65
2023/06/07 00:53:48;;;;;;;8.73;5.40;;;;;;;;;;5104651;28;20842;-65
2023/06/07 00:56:15;;;;;;;11.00;5.30;;;;;;;;;;5103618;28;20466;-64
2023/06/07 00:58:42;;;;;;;10.07;6.17;;;;;;;;;;5104507;28;20458;-64
2023/06/07 01:01:09;;;;;;;8.07;5.47;;;;;;;;;;5106006;28;20515;-65
2023/06/07 01:03:38;;;;;;;8.13;6.53;;;;;;;;;;5101657;28;20565;-64
2023/06/07 01:06:05;;;;;;;14.07;6.30;;;;;;;;;;5103108;28;20519;-65
2023/06/07 01:08:32;;;;;;;10.60;6.10;;;;;;;;;;5105996;28;20524;-65
2023/06/07 01:10:59;;;;;;;10.30;5.80;;;;;;;;;;5106617;28;20476;-65
2023/06/07 01:13:26;;;;;;;11.47;5.93;;;;;;;;;;5104241;28;20522;-65
2023/06/07 01:15:52;;;;;;;9.07;6.40;;;;;;;;;;5103918;28;20959;-65
2023/06/07 01:18:18;;;;;;;9.93;5.63;;;;;;;;;;5104223;28;20507;-65
2023/06/07 01:20:52;;;;;;;10.50;6.07;;;;;;;;;;5103978;28;20442;-66
2023/06/07 01:23:28;;;;;;;9.77;5.93;;;;;;;;;;5107122;28;20450;-66
2023/06/07 01:25:57;;;;;;;10.10;5.17;;;;;;;;;;5104077;28;20806;-66
2023/06/07 01:28:23;;;;;;;13.60;6.40;;;;;;;;;;5104260;28;20486;-66
2023/06/07 01:30:50;;;;;;;17.07;6.60;;;;;;;;;;5093244;28;20537;-64
2023/06/07 01:33:17;;;;;;;13.17;6.53;;;;;;;;;;5110106;28;20538;-64
2023/06/07 01:35:45;;;;;;;10.83;6.70;;;;;;;;;;5103381;28;20490;-64
2023/06/07 01:38:12;;;;;;;10.93;6.20;;;;;;;;;;5103594;28;20446;-64
2023/06/07 01:40:39;;;;;;;12.13;6.57;;;;;;;;;;5109598;28;20486;-65
2023/06/07 01:43:07;;;;;;;16.63;6.57;;;;;;;;;;5104152;28;20485;-65
2023/06/07 01:45:34;;;;;;;16.33;7.13;;;;;;;;;;5103688;28;20511;-66
2023/06/07 01:48:01;;;;;;;14.53;6.43;;;;;;;;;;5103796;28;20487;-66
2023/06/07 01:50:27;;;;;;;10.47;6.10;;;;;;;;;;5103974;28;20483;-66
2023/06/07 01:52:54;;;;;;;14.40;6.10;;;;;;;;;;5104843;28;20518;-65
2023/06/07 01:55:21;;;;;;;8.37;6.17;;;;;;;;;;5105368;28;20462;-65
2023/06/07 01:57:51;;;;;;;10.67;6.63;;;;;;;;;;5103827;28;20451;-65
2023/06/07 02:00:24;;;;;;;10.60;6.57;;;;;;;;;;5107320;28;20495;-65
2023/06/07 02:02:52;;;;;;;14.97;6.50;;;;;;;;;;5097716;28;20450;-65
2023/06/07 02:05:20;;;;;;;11.73;5.83;;;;;;;;;;5103700;28;20530;-63
2023/06/07 02:07:49;;;;;;;18.63;6.37;;;;;;;;;;5108465;28;20988;-66
2023/06/07 02:10:17;;;;;;;16.20;6.80;;;;;;;;;;5106576;28;20478;-65
2023/06/07 02:12:44;;;;;;;15.40;5.90;;;;;;;;;;5111103;28;20522;-65
2023/06/07 02:15:10;;;;;;;12.63;6.27;;;;;;;;;;5108741;28;20501;-65
2023/06/07 02:17:49;;;;;;;11.20;7.03;;;;;;;;;;5103232;28;21031;-64
2023/06/07 02:20:16;;;;;;;12.73;6.60;;;;;;;;;;5101355;28;20514;-64
2023/06/07 02:22:43;;;;;;;10.80;6.50;;;;;;;;;;5106068;28;20485;-64
2023/06/07 02:25:09;;;;;;;13.30;7.50;;;;;;;;;;5102809;28;20479;-64
2023/06/07 02:27:36;;;;;;;11.93;6.30;;;;;;;;;;5104785;28;20444;-64
2023/06/07 02:30:03;;;;;;;8.50;6.27;;;;;;;;;;5102860;28;20485;-64
2023/06/07 02:32:29;;;;;;;10.37;6.50;;;;;;;;;;5102673;28;20482;-66
2023/06/07 02:34:57;;;;;;;10.30;6.90;;;;;;;;;;5105321;28;20448;-66
2023/06/07 02:37:23;;;;;;;11.13;7.40;;;;;;;;;;5103021;28;20512;-66
2023/06/07 02:39:49;;;;;;;9.97;5.67;;;;;;;;;;5102654;28;20530;-66
2023/06/07 02:42:16;;;;;;;10.50;6.00;;;;;;;;;;5101034;28;20443;-66
2023/06/07 02:44:42;;;;;;;13.10;6.83;;;;;;;;;;5102266;28;20493;-65
2023/06/07 02:47:09;;;;;;;11.60;6.53;;;;;;;;;;5102604;28;20943;-66
2023/06/07 02:49:35;;;;;;;13.20;6.43;;;;;;;;;;5106776;28;20533;-66
2023/06/07 02:52:03;;;;;;;11.70;6.63;;;;;;;;;;5105600;28;20514;-65
2023/06/07 02:54:29;;;;;;;13.83;6.70;;;;;;;;;;5104020;28;20561;-65
2023/06/07 02:56:56;;;;;;;12.07;7.70;;;;;;;;;;5101639;28;20451;-65
2023/06/07 02:59:22;;;;;;;11.27;6.83;;;;;;;;;;5102273;28;20478;-65
2023/06/07 03:01:48;;;;;;;16.07;7.20;;;;;;;;;;5112187;28;20474;-65
2023/06/07 03:04:18;;;;;;;17.87;8.07;;;;;;;;;;5103105;28;20486;-66
2023/06/07 03:06:46;;;;;;;17.23;7.17;;;;;;;;;;5101416;28;20458;-66
2023/06/07 03:09:16;;;;;;;12.03;6.73;;;;;;;;;;5109088;28;20600;-67
2023/06/07 03:11:43;;;;;;;10.40;6.47;;;;;;;;;;5097005;28;20967;-66
2023/06/07 03:14:09;;;;;;;9.17;6.33;;;;;;;;;;5102141;28;20457;-66
2023/06/07 03:16:35;;;;;;;15.87;7.63;;;;;;;;;;5101720;28;20837;-66
2023/06/07 03:19:02;;;;;;;10.33;6.73;;;;;;;;;;5103419;28;20439;-67
2023/06/07 03:21:28;;;;;;;14.07;8.20;;;;;;;;;;5102362;28;20510;-66
2023/06/07 03:23:54;;;;;;;13.20;7.17;;;;;;;;;;5102311;28;20478;-66
2023/06/07 03:26:22;;;;;;;18.00;7.50;;;;;;;;;;5105462;28;20991;-65
2023/06/07 03:28:49;;;;;;;11.20;6.20;;;;;;;;;;5102192;28;20582;-68
2023/06/07 03:31:16;;;;;;;14.90;7.70;;;;;;;;;;5102595;28;20654;-65
2023/06/07 03:33:43;;;;;;;10.93;7.13;;;;;;;;;;5101198;28;20451;-66
2023/06/07 03:36:09;;;;;;;11.67;6.83;;;;;;;;;;5101656;28;20454;-65
2023/06/07 03:38:36;;;;;;;14.87;7.23;;;;;;;;;;5108382;28;20808;-65
2023/06/07 03:41:02;;;;;;;9.80;7.10;;;;;;;;;;5101357;28;20478;-65
2023/06/07 03:43:30;;;;;;;16.30;8.60;;;;;;;;;;5101093;28;20487;-66
2023/06/07 03:45:56;;;;;;;11.27;6.87;;;;;;;;;;5101233;28;20514;-66
2023/06/07 03:48:22;;;;;;;12.20;6.93;;;;;;;;;;5100625;28;20489;-66
2023/06/07 03:50:50;;;;;;;11.73;6.73;;;;;;;;;;5100479;28;20554;-64
2023/06/07 03:53:16;;;;;;;13.73;7.80;;;;;;;;;;5100317;28;20480;-62
2023/06/07 03:55:43;;;;;;;10.30;6.70;;;;;;;;;;5099081;28;20455;-62
2023/06/07 03:58:09;;;;;;;14.63;7.60;;;;;;;;;;5101208;28;20891;-61
2023/06/07 04:00:37;;;;;;;10.63;6.77;;;;;;;;;;5103729;28;20510;-61
2023/06/07 04:03:03;;;;;;;11.17;6.60;;;;;;;;;;5099770;28;20455;-63
2023/06/07 04:05:30;;;;;;;12.00;7.60;;;;;;;;;;5105806;28;20583;-61
2023/06/07 04:07:59;;;;;;;14.00;7.20;;;;;;;;;;5098532;28;20490;-62
2023/06/07 04:10:25;;;;;;;12.80;6.53;;;;;;;;;;5095578;28;20478;-60
2023/06/07 04:12:51;;;;;;;15.13;7.87;;;;;;;;;;5100660;28;20485;-61
2023/06/07 04:15:18;;;;;;;14.60;6.50;;;;;;;;;;5099173;28;20482;-63
2023/06/07 04:17:46;;;;;;;13.40;7.47;;;;;;;;;;5100662;28;20534;-60
2023/06/07 04:20:14;;;;;;;11.67;6.40;;;;;;;;;;5100437;28;20473;-61
2023/06/07 04:22:41;;;;;;;14.03;6.83;;;;;;;;;;5100327;28;20470;-62
2023/06/07 04:25:08;;;;;;;15.67;8.00;;;;;;;;;;5099095;28;20454;-60
2023/06/07 04:27:37;;;;;;;18.27;9.23;;;;;;;;;;5099747;28;20479;-61
2023/06/07 04:30:04;;;;;;;12.43;6.73;;;;;;;;;;5100408;28;20475;-62
2023/06/07 04:32:33;;;;;;;12.27;6.90;;;;;;;;;;5106604;28;20494;-61
2023/06/07 04:35:00;;;;;;;11.67;6.63;;;;;;;;;;5108707;28;20484;-64
2023/06/07 04:37:27;;;;;;;16.13;6.63;;;;;;;;;;5099474;28;20489;-63
2023/06/07 04:39:54;;;;;;;13.87;8.07;;;;;;;;;;5099099;28;20514;-64
2023/06/07 04:42:21;;;;;;;15.83;8.40;;;;;;;;;;5104641;28;20462;-64
2023/06/07 04:44:50;;;;;;;13.83;6.60;;;;;;;;;;5099049;28;20767;-65
2023/06/07 04:47:17;;;;;;;11.37;7.37;;;;;;;;;;5103555;28;20542;-64
2023/06/07 04:49:44;;;;;;;22.47;9.17;;;;;;;;;;5103123;28;20483;-64
2023/06/07 04:52:12;;;;;;;13.90;7.40;;;;;;;;;;5100555;28;20539;-64
2023/06/07 04:54:39;;;;;;;12.63;7.70;;;;;;;;;;5099426;28;20458;-63
2023/06/07 04:57:08;;;;;;;16.73;8.67;;;;;;;;;;5100870;28;20459;-64
2023/06/07 04:59:41;;;;;;;13.50;7.40;;;;;;;;;;5107942;28;20517;-64
2023/06/07 05:02:07;;;;;;;10.90;7.50;;;;;;;;;;5101482;28;20538;-63
2023/06/07 05:04:34;;;;;;;16.30;8.13;;;;;;;;;;5103592;28;20458;-62
2023/06/07 05:07:00;;;;;;;17.07;8.10;;;;;;;;;;5100472;28;20465;-62
2023/06/07 05:09:28;;;;;;;16.00;8.80;;;;;;;;;;5099641;28;20470;-60
2023/06/07 05:11:54;;;;;;;11.20;7.77;;;;;;;;;;5100100;28;20538;-61
2023/06/07 05:14:21;;;;;;;21.67;8.50;;;;;;;;;;5116077;28;20908;-61
2023/06/07 05:16:48;;;;;;;14.03;7.53;;;;;;;;;;5104346;28;20446;-62
2023/06/07 05:19:16;;;;;;;15.97;7.70;;;;;;;;;;5105324;28;20447;-62
2023/06/07 05:21:42;;;;;;;13.10;8.60;;;;;;;;;;5107432;28;20918;-60
2023/06/07 05:24:08;;;;;;;13.43;8.30;;;;;;;;;;5104402;28;20455;-63
2023/06/07 05:26:36;;;;;;;14.77;8.27;;;;;;;;;;5112869;28;20482;-60
2023/06/07 05:29:03;;;;;;;15.40;7.87;;;;;;;;;;5108286;28;20451;-61
2023/06/07 05:31:30;;;;;;;20.90;8.83;;;;;;;;;;5106375;28;20511;-60
2023/06/07 05:33:56;;;;;;;18.20;9.07;;;;;;;;;;5103666;28;20459;-61
2023/06/07 05:36:23;;;;;;;15.80;8.70;;;;;;;;;;5105298;28;20539;-62
2023/06/07 05:38:50;;;;;;;14.33;8.07;;;;;;;;;;5109433;28;20518;-61
2023/06/07 05:41:17;;;;;;;12.40;8.70;;;;;;;;;;5100644;28;20462;-60
2023/06/07 05:43:45;;;;;;;17.73;9.63;;;;;;;;;;5105317;28;20553;-61
2023/06/07 05:46:11;;;;;;;15.37;8.70;;;;;;;;;;5106050;28;20545;-63
2023/06/07 05:48:38;;;;;;;14.87;9.00;;;;;;;;;;5108832;28;20546;-61
2023/06/07 05:51:04;;;;;;;15.07;7.37;;;;;;;;;;5105240;28;20484;-63
2023/06/07 05:53:31;;;;;;;19.23;9.17;;;;;;;;;;5114920;28;20455;-62
2023/06/07 05:55:58;;;;;;;12.40;8.60;;;;;;;;;;5102074;28;20455;-61
2023/06/07 05:58:26;;;;;;;12.37;6.70;;;;;;;;;;5102930;28;20462;-63
2023/06/07 06:00:54;;;;;;;13.70;7.63;;;;;;;;;;5107739;28;20930;-61
2023/06/07 06:03:21;;;;;;;13.43;8.70;;;;;;;;;;5105952;28;20447;-61
2023/06/07 06:05:47;;;;;;;17.90;9.90;;;;;;;;;;5115037;28;20635;-61
2023/06/07 06:08:15;;;;;;;14.47;9.10;;;;;;;;;;5105313;28;20491;-62
2023/06/07 06:10:44;;;;;;;15.77;7.97;;;;;;;;;;5103430;28;20539;-61
2023/06/07 06:13:10;;;;;;;18.90;9.00;;;;;;;;;;5109850;28;20447;-62
2023/06/07 06:15:37;;;;;;;13.57;7.67;;;;;;;;;;5102442;28;20551;-62
2023/06/07 06:18:04;;;;;;;16.60;8.17;;;;;;;;;;5108216;28;20882;-62
2023/06/07 06:20:33;;;;;;;13.37;9.33;;;;;;;;;;5100983;28;20470;-62
2023/06/07 06:23:00;;;;;;;17.30;8.13;;;;;;;;;;5101821;28;20518;-63
2023/06/07 06:25:28;;;;;;;18.60;10.10;;;;;;;;;;5101201;28;20482;-60
2023/06/07 06:27:54;;;;;;;11.70;8.00;;;;;;;;;;5102385;28;20473;-63
2023/06/07 06:30:23;;;;;;;13.50;7.20;;;;;;;;;;5102226;28;20566;-62
2023/06/07 06:32:49;;;;;;;13.00;8.60;;;;;;;;;;5102080;28;20455;-62
2023/06/07 06:35:17;;;;;;;10.63;7.97;;;;;;;;;;5101989;28;20482;-64
2023/06/07 06:37:44;;;;;;;12.27;8.50;;;;;;;;;;5104684;28;20533;-61
2023/06/07 06:40:10;;;;;;;14.60;7.93;;;;;;;;;;5101856;28;20873;-62
2023/06/07 06:42:37;;;;;;;14.57;8.27;;;;;;;;;;5104886;28;20536;-63
2023/06/07 06:45:03;;;;;;;15.00;8.40;;;;;;;;;;5101921;28;20478;-61
2023/06/07 06:47:30;;;;;;;10.37;7.40;;;;;;;;;;5102259;28;20510;-61
2023/06/07 06:49:59;;;;;;;18.07;8.80;;;;;;;;;;5101600;28;20539;-62
2023/06/07 06:52:26;;;;;;;11.47;8.67;;;;;;;;;;5102846;28;20519;-60
2023/06/07 06:54:53;;;;;;;15.23;8.43;;;;;;;;;;5101461;28;20522;-63
2023/06/07 06:57:19;;;;;;;14.47;8.10;;;;;;;;;;5102354;28;20458;-60
2023/06/07 06:59:46;;;;;;;12.50;8.00;;;;;;;;;;5102242;28;20471;-61
2023/06/07 07:02:12;;;;;;;16.00;8.93;;;;;;;;;;5102204;28;20824;-61
2023/06/07 07:04:38;;;;;;;21.77;8.40;;;;;;;;;;5104906;28;20489;-65
2023/06/07 07:07:05;;;;;;;15.33;8.40;;;;;;;;;;5105763;28;20534;-60
2023/06/07 07:09:33;;;;;;;14.73;7.93;;;;;;;;;;5101859;28;20520;-61
2023/06/07 07:12:00;;;;;;;12.70;8.40;;;;;;;;;;5108382;28;20519;-60
2023/06/07 07:14:26;;;;;;;11.07;7.60;;;;;;;;;;5104398;28;20538;-61
2023/06/07 07:16:53;;;;;;;14.00;8.63;;;;;;;;;;5102005;28;20954;-62
2023/06/07 07:19:20;;;;;;;17.30;8.33;;;;;;;;;;5105042;28;20511;-62
2023/06/07 07:21:46;;;;;;;15.90;8.20;;;;;;;;;;5101969;28;20519;-62
2023/06/07 07:24:12;;;;;;;11.93;8.30;;;;;;;;;;5099878;28;20547;-62
2023/06/07 07:26:40;;;;;;;18.17;9.23;;;;;;;;;;5101353;28;20451;-60
2023/06/07 07:29:07;;;;;;;13.83;9.13;;;;;;;;;;5111465;28;20460;-60
2023/06/07 07:31:33;;;;;;;13.87;8.83;;;;;;;;;;5101934;28;20554;-61
2023/06/07 07:34:00;;;;;;;18.73;10.00;;;;;;;;;;5100199;28;20521;-58
2023/06/07 07:36:26;;;;;;;14.70;8.90;;;;;;;;;;5101796;28;20451;-59
2023/06/07 07:38:53;;;;;;;12.93;8.33;;;;;;;;;;5110936;28;20457;-59
2023/06/07 07:41:20;;;;;;;15.30;8.80;;;;;;;;;;5109391;28;20538;-58
2023/06/07 07:43:47;;;;;;;17.13;9.77;;;;;;;;;;5105522;28;20497;-59
2023/06/07 07:46:14;;;;;;;15.63;9.17;;;;;;;;;;5103413;28;20546;-59
2023/06/07 07:48:40;;;;;;;16.50;7.57;;;;;;;;;;5106683;28;20479;-59
2023/06/07 07:51:07;;;;;;;18.30;8.43;;;;;;;;;;5100422;28;20542;-59
2023/06/07 07:53:33;;;;;;;15.57;9.90;;;;;;;;;;5100804;28;21043;-59
2023/06/07 07:56:00;;;;;;;21.93;9.77;;;;;;;;;;5105163;28;20487;-59
2023/06/07 07:58:26;;;;;;;13.87;9.37;;;;;;;;;;5103654;28;20457;-59
2023/06/07 08:00:54;;;;;;;12.33;8.30;;;;;;;;;;5101081;28;20459;-60
2023/06/07 08:03:21;;;;;;;15.40;8.83;;;;;;;;;;5103062;28;20536;-59
2023/06/07 08:05:47;;;;;;;14.10;8.37;;;;;;;;;;5100992;28;20963;-60
2023/06/07 08:08:17;;;;;;;14.73;9.80;;;;;;;;;;5100767;28;20600;-59
2023/06/07 08:10:44;;;;;;;15.73;9.93;;;;;;;;;;5101225;28;20486;-59
2023/06/07 08:13:10;;;;;;;10.73;6.87;;;;;;;;;;5100734;28;20636;-59
2023/06/07 08:15:36;;;;;;;18.83;9.07;;;;;;;;;;5100984;28;20510;-59
2023/06/07 08:18:04;;;;;;;13.30;8.53;;;;;;;;;;5100839;28;20501;-59
2023/06/07 08:20:31;;;;;;;15.30;8.97;;;;;;;;;;5100560;28;20955;-59
2023/06/07 08:22:57;;;;;;;12.97;8.37;;;;;;;;;;5101620;28;20489;-59
2023/06/07 08:25:24;;;;;;;11.50;8.00;;;;;;;;;;5100481;28;20474;-60
2023/06/07 08:27:50;;;;;;;13.90;8.40;;;;;;;;;;5101114;28;20537;-60
2023/06/07 08:30:17;;;;;;;17.77;10.13;;;;;;;;;;5110947;28;21279;-60
2023/06/07 08:32:44;;;;;;;11.73;9.00;;;;;;;;;;5101125;28;20462;-60
2023/06/07 08:35:12;;;;;;;16.53;9.10;;;;;;;;;;5100116;28;20873;-60
2023/06/07 08:37:39;;;;;;;16.50;9.10;;;;;;;;;;5103052;28;20570;-60
2023/06/07 08:40:08;;;;;;;14.63;8.60;;;;;;;;;;5103791;28;20446;-61
2023/06/07 08:42:35;;;;;;;17.27;9.03;;;;;;;;;;5102304;28;20454;-60
2023/06/07 08:45:01;;;;;;;13.80;8.83;;;;;;;;;;5109619;28;20482;-60
2023/06/07 08:47:29;;;;;;;15.20;10.17;;;;;;;;;;5100724;28;20468;-60
2023/06/07 08:49:56;;;;;;;16.03;9.90;;;;;;;;;;5104636;28;20744;-60
2023/06/07 08:52:25;;;;;;;15.37;9.33;;;;;;;;;;5103446;28;20510;-61
2023/06/07 08:54:53;;;;;;;16.27;10.13;;;;;;;;;;5100145;28;20458;-60
2023/06/07 08:57:19;;;;;;;15.87;8.67;;;;;;;;;;5106105;28;20475;-61
2023/06/07 08:59:47;;;;;;;11.60;9.17;;;;;;;;;;5104361;28;20539;-62
2023/06/07 09:02:13;;;;;;;16.00;9.93;;;;;;;;;;5100448;28;20987;-62
2023/06/07 09:04:40;;;;;;;16.83;9.80;;;;;;;;;;5108919;28;20489;-64
2023/06/07 09:07:07;;;;;;;16.17;9.73;;;;;;;;;;5104314;28;20447;-62
2023/06/07 09:09:35;;;;;;;14.93;11.03;;;;;;;;;;5107038;28;20451;-61
2023/06/07 09:12:01;;;;;;;21.00;10.27;;;;;;;;;;5107022;28;20495;-61
2023/06/07 09:14:28;;;;;;;14.70;9.57;;;;;;;;;;5103149;28;20483;-61
2023/06/07 09:16:55;;;;;;;15.93;10.77;;;;;;;;;;5103920;28;20478;-62
2023/06/07 09:19:34;;;;;;;16.00;9.53;;;;;;;;;;5104014;28;20696;-61
2023/06/07 09:22:01;;;;;;;16.03;10.00;;;;;;;;;;5099355;28;20446;-60
2023/06/07 09:24:28;;;;;;;17.47;10.90;;;;;;;;;;5109907;28;20546;-62
2023/06/07 09:26:56;;;;;;;16.83;10.57;;;;;;;;;;5109778;28;20462;-63
2023/06/07 09:29:22;;;;;;;14.27;11.00;;;;;;;;;;5109225;28;20618;-63
2023/06/07 09:31:49;;;;;;;15.13;8.70;;;;;;;;;;5103902;28;21084;-64
2023/06/07 09:34:19;;;;;;;13.63;9.30;;;;;;;;;;5095870;28;20659;-63
2023/06/07 09:36:49;;;;;;;11.60;9.07;;;;;;;;;;5111331;28;20455;-63
2023/06/07 09:39:19;;;;;;;13.90;10.10;;;;;;;;;;5106792;28;20442;-63
2023/06/07 09:41:46;;;;;;;14.87;9.93;;;;;;;;;;5105393;28;20448;-61
2023/06/07 09:44:20;;;;;;;16.03;10.70;;;;;;;;;;5102783;28;20545;-62
2023/06/07 09:46:47;;;;;;;12.57;9.73;;;;;;;;;;5102804;28;20505;-63
2023/06/07 09:49:13;;;;;;;15.53;10.20;;;;;;;;;;5102951;28;20719;-61
2023/06/07 09:51:40;;;;;;;15.70;9.80;;;;;;;;;;5097123;28;21042;-60
2023/06/07 09:54:08;;;;;;;15.20;10.10;;;;;;;;;;5106617;28;20459;-61
2023/06/07 09:56:39;;;;;;;11.93;9.27;;;;;;;;;;5102439;28;20481;-62
2023/06/07 09:59:06;;;;;;;12.70;9.30;;;;;;;;;;5100502;28;20478;-62
2023/06/07 10:01:34;;;;;;;15.00;8.47;;;;;;;;;;5104520;28;20451;-62
2023/06/07 10:04:02;;;;;;;12.37;9.27;;;;;;;;;;5100852;28;20910;-60
2023/06/07 10:06:30;;;;;;;11.33;8.10;;;;;;;;;;5102985;28;20476;-65
2023/06/07 10:08:57;;;;;;;10.63;8.27;;;;;;;;;;5104285;28;20546;-62
2023/06/07 10:11:23;;;;;;;14.23;9.23;;;;;;;;;;5102890;28;20493;-63
2023/06/07 10:13:51;;;;;;;13.70;8.83;;;;;;;;;;5102331;28;20519;-63
2023/06/07 10:16:17;;;;;;;11.03;8.57;;;;;;;;;;5102661;28;20492;-62
2023/06/07 10:18:46;;;;;;;12.67;8.37;;;;;;;;;;5113555;28;20485;-61
2023/06/07 10:21:15;;;;;;;11.33;8.20;;;;;;;;;;5102652;28;20884;-63
2023/06/07 10:23:44;;;;;;;14.33;9.13;;;;;;;;;;5102655;28;20447;-61
2023/06/07 10:26:16;;;;;;;18.23;9.50;;;;;;;;;;5106309;28;20478;-65
2023/06/07 10:28:47;;;;;;;12.63;9.77;;;;;;;;;;5108037;28;20454;-62
2023/06/07 10:31:13;;;;;;;14.87;8.97;;;;;;;;;;5102330;28;20593;-64
2023/06/07 10:33:40;;;;;;;11.67;9.20;;;;;;;;;;5102173;28;20509;-62
2023/06/07 10:36:08;;;;;;;14.17;9.00;;;;;;;;;;5106654;28;20484;-63
2023/06/07 10:38:34;;;;;;;12.30;8.53;;;;;;;;;;5107600;28;20884;-62
2023/06/07 10:41:05;;;;;;;11.87;8.57;;;;;;;;;;5102918;28;20515;-63
2023/06/07 10:43:32;;;;;;;13.20;9.00;;;;;;;;;;5103753;28;20497;-65
2023/06/07 10:46:13;;;;;;;12.27;8.93;;;;;;;;;;5103108;28;20915;-62
2023/06/07 10:48:43;;;;;;;11.07;8.57;;;;;;;;;;5099517;28;20537;-64
2023/06/07 10:51:11;;;;;;;17.07;9.80;;;;;;;;;;5103740;28;20478;-62
2023/06/07 10:53:53;;;;;;;11.37;8.13;;;;;;;;;;5105408;28;21011;-61
2023/06/07 10:56:26;;;;;;;16.10;9.33;;;;;;;;;;5101184;28;20454;-61
2023/06/07 10:58:53;;;;;;;9.73;8.67;;;;;;;;;;5095749;28;20455;-62
2023/06/07 11:01:23;;;;;;;12.03;9.07;;;;;;;;;;5101121;28;20447;-62
2023/06/07 11:03:50;;;;;;;12.03;8.77;;;;;;;;;;5105933;28;20459;-61
2023/06/07 11:06:18;;;;;;;11.43;8.87;;;;;;;;;;5105192;28;20557;-62
2023/06/07 11:08:44;;;;;;;11.17;7.63;;;;;;;;;;5101360;28;20455;-62
2023/06/07 11:11:29;;;;;;;12.00;8.83;;;;;;;;;;5101188;28;20510;-62
2023/06/07 11:14:12;;;;;;;12.07;8.90;;;;;;;;;;5102426;28;20450;-61
2023/06/07 11:16:39;;;;;;;10.93;8.57;;;;;;;;;;5099391;28;20469;-61
2023/06/07 11:19:09;;;;;;;10.83;8.37;;;;;;;;;;5101102;28;20487;-61
2023/06/07 11:21:50;;;;;;;12.50;9.30;;;;;;;;;;5101713;28;20460;-61
2023/06/07 11:24:18;;;;;;;13.97;9.90;;;;;;;;;;5103810;28;20454;-61
2023/06/07 11:26:45;;;;;;;11.23;8.80;;;;;;;;;;5099215;28;20470;-61
2023/06/07 11:29:12;;;;;;;11.20;9.00;;;;;;;;;;5100185;28;20459;-61
2023/06/07 11:31:38;;;;;;;15.40;9.27;;;;;;;;;;5093883;28;20513;-61
2023/06/07 11:34:05;;;;;;;14.23;10.07;;;;;;;;;;5100844;28;21021;-61
2023/06/07 11:36:31;;;;;;;19.53;11.60;;;;;;;;;;5111444;28;20483;-62
2023/06/07 11:39:01;;;;;;;15.93;10.97;;;;;;;;;;5105459;28;20478;-61
2023/06/07 11:41:29;;;;;;;20.20;11.20;;;;;;;;;;5099566;28;20443;-60
2023/06/07 11:43:56;;;;;;;12.90;9.70;;;;;;;;;;5100693;28;20606;-58
2023/06/07 11:46:22;;;;;;;11.93;9.90;;;;;;;;;;5102225;28;20459;-59
2023/06/07 11:48:49;;;;;;;14.03;10.87;;;;;;;;;;5100589;28;20477;-60
2023/06/07 11:51:18;;;;;;;16.53;10.97;;;;;;;;;;5099761;28;20487;-61
2023/06/07 11:53:47;;;;;;;24.53;10.83;;;;;;;;;;5103981;28;20486;-61
2023/06/07 11:56:14;;;;;;;12.23;9.60;;;;;;;;;;5106899;28;20486;-63
2023/06/07 11:58:42;;;;;;;19.97;10.80;;;;;;;;;;5100256;28;20486;-62
2023/06/07 12:01:09;;;;;;;18.10;10.43;;;;;;;;;;5101571;28;20967;-62
2023/06/07 12:03:35;;;;;;;13.87;10.90;;;;;;;;;;5099179;28;20455;-62
2023/06/07 12:06:02;;;;;;;14.33;10.80;;;;;;;;;;5100104;28;20481;-63
2023/06/07 12:08:29;;;;;;;12.80;10.00;;;;;;;;;;5103808;28;20490;-62
2023/06/07 12:10:56;;;;;;;15.20;8.90;;;;;;;;;;5111388;28;20450;-63
2023/06/07 12:13:23;;;;;;;16.00;10.70;;;;;;;;;;5100128;28;20492;-63
2023/06/07 12:15:54;;;;;;;13.70;9.10;;;;;;;;;;5099993;28;20531;-64
2023/06/07 12:18:24;;;;;;;15.00;9.83;;;;;;;;;;5100379;28;20455;-62
2023/06/07 12:21:01;;;;;;;17.87;10.60;;;;;;;;;;5100936;28;20465;-63
2023/06/07 12:23:27;;;;;;;16.20;8.80;;;;;;;;;;5099159;28;20542;-63
2023/06/07 12:26:05;;;;;;;18.40;10.60;;;;;;;;;;5103138;28;21105;-62
2023/06/07 12:28:31;;;;;;;13.60;8.53;;;;;;;;;;5099176;28;20451;-62
2023/06/07 12:30:59;;;;;;;12.30;8.90;;;;;;;;;;5100749;28;20863;-61
2023/06/07 12:33:26;;;;;;;10.53;8.33;;;;;;;;;;5106147;28;21185;-62
2023/06/07 12:35:52;;;;;;;13.70;8.80;;;;;;;;;;5100707;28;20520;-61
2023/06/07 12:38:20;;;;;;;14.83;9.77;;;;;;;;;;5099539;28;20477;-64
2023/06/07 12:40:46;;;;;;;13.13;8.20;;;;;;;;;;5100649;28;20481;-62
2023/06/07 12:43:13;;;;;;;13.90;9.57;;;;;;;;;;5107187;28;20450;-62
2023/06/07 12:45:39;;;;;;;12.47;8.20;;;;;;;;;;5103221;28;20517;-63
2023/06/07 12:48:07;;;;;;;11.50;7.80;;;;;;;;;;5101419;28;20482;-61
2023/06/07 12:50:34;;;;;;;11.90;6.47;;;;;;;;;;5100870;28;20474;-62
2023/06/07 12:53:00;;;;;;;13.33;8.00;;;;;;;;;;5099763;28;20487;-61
2023/06/07 12:55:27;;;;;;;10.53;8.10;;;;;;;;;;5098584;28;20474;-61
2023/06/07 12:57:53;;;;;;;9.80;8.07;;;;;;;;;;5099822;28;21014;-61
2023/06/07 13:00:20;;;;;;;14.67;7.17;;;;;;;;;;5103286;28;20529;-60
2023/06/07 13:02:47;;;;;;;13.73;7.60;;;;;;;;;;5101342;28;20455;-60
2023/06/07 13:05:15;;;;;;;13.80;7.10;;;;;;;;;;5098021;28;20450;-61
2023/06/07 13:07:42;;;;;;;10.33;7.20;;;;;;;;;;5100424;28;20465;-62
2023/06/07 13:10:10;;;;;;;11.23;7.50;;;;;;;;;;5106277;28;20855;-62
2023/06/07 13:12:36;;;;;;;17.47;7.30;;;;;;;;;;5096494;28;20491;-62
2023/06/07 13:15:04;;;;;;;13.73;7.80;;;;;;;;;;5100090;28;20455;-61
2023/06/07 13:17:30;;;;;;;9.90;7.47;;;;;;;;;;5099147;28;20506;-61
2023/06/07 13:19:57;;;;;;;14.60;6.93;;;;;;;;;;5106324;28;20439;-63
2023/06/07 13:22:25;;;;;;;10.20;6.80;;;;;;;;;;5099355;28;20482;-61
2023/06/07 13:24:51;;;;;;;12.63;7.40;;;;;;;;;;5099035;28;20471;-61
2023/06/07 13:27:18;;;;;;;15.10;8.07;;;;;;;;;;5105579;28;20525;-61
2023/06/07 13:29:44;;;;;;;11.63;7.00;;;;;;;;;;5095287;28;20486;-62
2023/06/07 13:32:11;;;;;;;14.07;8.50;;;;;;;;;;5099943;28;21074;-63
2023/06/07 13:34:37;;;;;;;19.37;8.70;;;;;;;;;;5106326;28;20550;-61
2023/06/07 13:37:03;;;;;;;14.73;7.67;;;;;;;;;;5110262;28;20468;-61
2023/06/07 13:39:31;;;;;;;13.80;8.53;;;;;;;;;;5103802;28;20506;-61
2023/06/07 13:41:57;;;;;;;9.87;6.63;;;;;;;;;;5102857;28;21540;-62
2023/06/07 13:44:24;;;;;;;15.50;7.40;;;;;;;;;;5102953;28;20479;-61
2023/06/07 13:46:51;;;;;;;14.43;7.17;;;;;;;;;;5103061;28;20499;-63
2023/06/07 13:49:18;;;;;;;12.83;7.17;;;;;;;;;;5102460;28;20884;-62
2023/06/07 13:51:45;;;;;;;10.73;7.30;;;;;;;;;;5110280;28;20532;-63
2023/06/07 13:54:11;;;;;;;11.53;8.23;;;;;;;;;;5102892;28;20787;-63
2023/06/07 13:56:39;;;;;;;10.97;7.97;;;;;;;;;;5105414;28;20512;-62
2023/06/07 13:59:05;;;;;;;11.33;7.70;;;;;;;;;;5104661;28;20454;-62
2023/06/07 14:01:32;;;;;;;15.50;8.20;;;;;;;;;;5109243;28;20575;-63
2023/06/07 14:03:58;;;;;;;17.03;8.10;;;;;;;;;;5108018;28;20457;-62
2023/06/07 14:06:26;;;;;;;13.13;8.10;;;;;;;;;;5107408;28;20465;-62
2023/06/07 14:08:53;;;;;;;11.97;6.70;;;;;;;;;;5101007;28;20490;-63
2023/06/07 14:11:21;;;;;;;9.43;6.53;;;;;;;;;;5112264;28;20741;-62
2023/06/07 14:13:49;;;;;;;8.70;6.60;;;;;;;;;;5102535;28;20444;-62
2023/06/07 14:16:15;;;;;;;11.20;6.30;;;;;;;;;;5102455;28;20481;-60
2023/06/07 14:18:41;;;;;;;10.87;6.87;;;;;;;;;;5101712;28;20447;-61
2023/06/07 14:21:08;;;;;;;17.13;8.47;;;;;;;;;;5102019;28;20486;-62
2023/06/07 14:23:34;;;;;;;11.53;6.37;;;;;;;;;;5095415;28;21010;-62
2023/06/07 14:26:01;;;;;;;12.70;6.50;;;;;;;;;;5103760;28;20833;-61
2023/06/07 14:28:27;;;;;;;8.87;6.10;;;;;;;;;;5102263;28;20451;-62
2023/06/07 14:30:55;;;;;;;11.77;6.20;;;;;;;;;;5108726;28;20461;-62
2023/06/07 14:33:21;;;;;;;8.50;6.70;;;;;;;;;;5102859;28;20486;-62